createdAt,value
2022-10-06T00:01:56.028Z,58.26
2022-10-06T00:06:58.827Z,64.33
2022-10-06T00:12:01.528Z,58.38
2022-10-06T00:17:04.818Z,57.07
2022-10-06T00:22:07.536Z,63.67
2022-10-06T00:27:10.232Z,64.33
2022-10-06T00:32:12.911Z,57.33
2022-10-06T00:37:15.630Z,61.01
2022-10-06T00:42:31.412Z,67.44
2022-10-06T00:47:34.174Z,59.00
2022-10-06T00:52:36.902Z,58.69
2022-10-06T00:57:41.362Z,64.63
2022-10-06T01:03:07.910Z,57.78
2022-10-06T01:08:10.750Z,63.23
2022-10-06T01:13:14.873Z,64.45
2022-10-06T01:18:20.385Z,56.43
2022-10-06T01:23:23.503Z,62.30
2022-10-06T01:28:26.722Z,64.14
2022-10-06T01:33:30.375Z,56.82
2022-10-06T01:38:33.536Z,59.20
2022-10-06T01:43:36.313Z,66.19
2022-10-06T01:48:38.983Z,58.56
2022-10-06T01:53:42.091Z,61.95
2022-10-06T01:58:44.760Z,65.24
2022-10-06T02:03:47.439Z,58.53
2022-10-06T02:08:50.288Z,61.10
2022-10-06T02:13:53.605Z,62.85
2022-10-06T02:18:56.299Z,58.13
2022-10-06T02:23:59.174Z,65.83
2022-10-06T02:29:01.823Z,60.60
2022-10-06T02:34:04.948Z,59.30
2022-10-06T02:39:07.813Z,66.64
2022-10-06T02:44:10.561Z,59.51
2022-10-06T02:49:13.733Z,57.95
2022-10-06T02:54:16.624Z,64.72
2022-10-06T02:59:19.307Z,58.12
2022-10-06T03:04:22.027Z,61.49
2022-10-06T03:09:25.355Z,64.38
2022-10-06T03:14:28.166Z,58.07
2022-10-06T03:19:30.835Z,64.31
2022-10-06T03:24:33.857Z,62.13
2022-10-06T03:29:36.523Z,57.18
2022-10-06T03:34:39.221Z,62.32
2022-10-06T03:39:42.120Z,65.45
2022-10-06T03:44:44.875Z,57.58
2022-10-06T03:49:47.867Z,60.52
2022-10-06T03:54:50.547Z,66.31
2022-10-06T03:59:53.282Z,58.09
2022-10-06T04:04:56.552Z,59.11
2022-10-06T04:09:59.155Z,65.42
2022-10-06T04:15:02.486Z,58.33
2022-10-06T04:20:06.010Z,60.98
2022-10-06T04:25:08.886Z,65.38
2022-10-06T04:30:12.751Z,57.82
2022-10-06T04:35:15.632Z,64.80
2022-10-06T04:40:18.542Z,62.36
2022-10-06T04:45:21.237Z,58.05
2022-10-06T04:50:24.147Z,64.28
2022-10-06T04:55:26.786Z,60.18
2022-10-06T05:00:29.531Z,63.56
2022-10-06T05:05:32.196Z,60.39
2022-10-06T05:10:34.864Z,57.31
2022-10-06T05:15:37.877Z,63.98
2022-10-06T05:20:40.571Z,59.90
2022-10-06T05:25:51.741Z,63.32
2022-10-06T05:30:55.137Z,59.74
2022-10-06T05:36:00.750Z,63.90
2022-10-06T05:41:03.342Z,62.98
2022-10-06T05:46:11.057Z,59.64
2022-10-06T05:51:15.052Z,63.32
2022-10-06T05:56:20.524Z,60.19
2022-10-06T06:01:37.051Z,59.90
2022-10-06T06:06:46.255Z,65.43
2022-10-06T06:11:51.036Z,59.20
2022-10-06T06:16:54.356Z,63.01
2022-10-06T06:21:57.440Z,61.04
2022-10-06T06:27:00.305Z,60.61
2022-10-06T06:32:06.005Z,62.11
2022-10-06T06:37:14.979Z,57.99
2022-10-06T06:42:19.206Z,63.23
2022-10-06T06:47:25.976Z,59.72
2022-10-06T06:52:31.135Z,62.64
2022-10-06T06:57:34.363Z,62.40
2022-10-06T07:02:41.867Z,59.01
2022-10-06T07:07:48.627Z,63.05
2022-10-06T07:24:20.873Z,62.34
2022-10-06T07:29:25.258Z,60.71
2022-10-06T07:40:18.567Z,61.89
2022-10-06T07:45:39.041Z,59.91
2022-10-06T07:50:43.816Z,62.49
2022-10-06T07:55:47.891Z,59.49
2022-10-06T08:00:52.908Z,62.43
2022-10-06T08:06:03.392Z,59.25
2022-10-06T08:11:08.179Z,62.52
2022-10-06T08:16:22.996Z,59.59
2022-10-06T08:21:29.090Z,62.72
2022-10-06T08:26:33.279Z,59.67
2022-10-06T08:31:36.086Z,62.45
2022-10-06T08:36:38.973Z,58.74
2022-10-06T08:41:51.210Z,61.88
2022-10-06T08:47:02.578Z,58.70
2022-10-06T08:52:27.990Z,61.94
2022-10-06T08:58:29.461Z,57.90
2022-10-06T09:03:45.909Z,62.05
2022-10-06T09:09:35.694Z,57.84
2022-10-06T09:15:12.346Z,61.79
2022-10-06T09:20:38.397Z,58.28
2022-10-06T09:25:42.026Z,59.42
2022-10-06T09:30:53.151Z,61.45
2022-10-06T09:36:08.316Z,60.10
2022-10-06T09:41:30.077Z,58.31
2022-10-06T09:46:43.949Z,60.88
2022-10-06T09:52:07.695Z,60.64
2022-10-06T09:57:28.929Z,57.75
2022-10-06T10:02:39.875Z,59.94
2022-10-06T10:08:07.284Z,60.53
2022-10-06T10:13:43.915Z,61.41
2022-10-06T10:25:25.649Z,59.05
2022-10-06T10:30:39.573Z,57.94
2022-10-06T10:35:48.582Z,57.75
2022-10-06T10:41:11.929Z,58.48
2022-10-06T10:46:34.856Z,59.28
2022-10-06T10:51:52.967Z,57.06
2022-10-06T10:56:55.823Z,57.22
2022-10-06T11:02:14.487Z,58.00
2022-10-06T11:13:25.218Z,60.42
2022-10-06T11:18:49.648Z,61.39
2022-10-06T11:24:21.373Z,61.44
2022-10-06T11:29:43.199Z,60.90
2022-10-06T11:34:51.572Z,58.95
2022-10-06T11:40:17.345Z,57.81
2022-10-06T11:45:32.265Z,56.44
2022-10-06T11:50:43.306Z,53.60
2022-10-06T11:55:46.093Z,52.98
2022-10-06T12:00:49.769Z,53.33
2022-10-06T12:05:57.063Z,53.49
2022-10-06T12:11:02.384Z,52.52
2022-10-06T12:22:16.982Z,50.67
2022-10-06T12:27:30.271Z,49.84
2022-10-06T12:32:53.061Z,49.71
2022-10-06T12:38:05.096Z,50.08
2022-10-06T12:43:15.311Z,49.97
2022-10-06T12:48:26.967Z,50.36
2022-10-06T12:53:37.005Z,49.57
2022-10-06T12:58:39.727Z,50.33
2022-10-06T13:03:47.257Z,49.71
2022-10-06T13:09:15.049Z,49.79
2022-10-06T13:14:17.721Z,49.88
2022-10-06T13:19:25.891Z,49.65
2022-10-06T13:24:31.064Z,49.09
2022-10-06T13:29:33.734Z,48.92
2022-10-06T13:34:43.283Z,49.36
2022-10-06T13:39:46.725Z,46.99
2022-10-06T13:44:59.567Z,47.54
2022-10-06T13:50:08.372Z,46.81
2022-10-06T13:55:18.666Z,46.83
2022-10-06T14:00:25.740Z,46.16
2022-10-06T14:05:40.225Z,47.26
2022-10-06T14:10:49.750Z,46.97
2022-10-06T14:16:02.125Z,47.66
2022-10-06T14:21:36.791Z,46.96
2022-10-06T14:26:39.932Z,46.53
2022-10-06T14:31:43.702Z,46.02
2022-10-06T14:36:55.417Z,46.34
2022-10-06T14:41:58.865Z,46.98
2022-10-06T14:47:01.564Z,46.62
2022-10-06T14:52:05.676Z,44.59
2022-10-06T14:57:09.807Z,44.51
2022-10-06T15:02:12.643Z,44.81
2022-10-06T15:07:34.032Z,44.96
2022-10-06T15:12:36.932Z,45.14
2022-10-06T15:17:39.605Z,45.97
2022-10-06T15:22:42.288Z,46.27
2022-10-06T15:28:03.521Z,46.38
2022-10-06T15:33:06.568Z,47.08
2022-10-06T15:38:09.336Z,48.36
2022-10-06T15:43:14.202Z,49.10
2022-10-06T15:48:20.330Z,49.82
2022-10-06T15:53:23.151Z,50.93
2022-10-06T15:58:25.769Z,52.63
2022-10-06T16:03:41.278Z,53.51
2022-10-06T16:08:44.405Z,54.18
2022-10-06T16:13:47.099Z,55.88
2022-10-06T16:18:49.908Z,57.92
2022-10-06T16:23:53.732Z,59.81
2022-10-06T16:28:56.559Z,60.44
2022-10-06T16:33:59.406Z,62.71
2022-10-06T16:39:03.318Z,66.60
2022-10-06T16:44:06.041Z,52.90
2022-10-06T16:49:09.758Z,54.40
2022-10-06T16:54:14.782Z,57.73
2022-10-06T16:59:20.366Z,58.83
2022-10-06T17:04:26.066Z,60.28
2022-10-06T17:09:29.810Z,61.55
2022-10-06T17:14:34.591Z,70.13
2022-10-06T17:19:37.344Z,59.21
2022-10-06T17:24:40.028Z,54.98
2022-10-06T17:29:44.788Z,58.66
2022-10-06T17:34:47.898Z,61.66
2022-10-06T17:39:50.529Z,69.06
2022-10-06T17:44:53.869Z,56.90
2022-10-06T17:49:57.136Z,56.53
2022-10-06T17:54:59.809Z,60.44
2022-10-06T18:00:02.622Z,67.21
2022-10-06T18:05:07.098Z,56.31
2022-10-06T18:10:28.363Z,57.55
2022-10-06T18:15:36.342Z,61.25
2022-10-06T18:20:41.306Z,68.15
2022-10-06T18:25:44.489Z,56.68
2022-10-06T18:30:50.610Z,58.28
2022-10-06T18:36:14.942Z,65.50
2022-10-06T18:41:19.654Z,57.48
2022-10-06T18:46:41.904Z,57.23
2022-10-06T18:51:47.011Z,62.68
2022-10-06T18:56:53.489Z,64.40
2022-10-06T19:01:56.800Z,55.50
2022-10-06T19:06:59.653Z,59.89
2022-10-06T19:12:02.344Z,66.44
2022-10-06T19:17:14.975Z,56.81
2022-10-06T19:22:20.135Z,57.81
2022-10-06T19:27:25.109Z,64.16
2022-10-06T19:32:32.352Z,61.48
2022-10-06T19:37:35.045Z,56.03
2022-10-06T19:42:51.231Z,60.83
2022-10-06T19:47:54.822Z,66.60
2022-10-06T19:52:57.553Z,56.33
2022-10-06T19:58:00.538Z,59.31
2022-10-06T20:03:07.532Z,66.16
2022-10-06T20:08:10.223Z,56.48
2022-10-06T20:13:12.897Z,59.49
2022-10-06T20:18:15.926Z,66.11
2022-10-06T20:23:18.659Z,56.23
2022-10-06T20:28:21.620Z,59.06
2022-10-06T20:33:24.410Z,66.06
2022-10-06T20:38:47.056Z,56.15
2022-10-06T20:43:50.832Z,59.85
2022-10-06T20:48:53.665Z,65.84
2022-10-06T20:53:56.357Z,56.53
2022-10-06T20:59:08.816Z,60.88
2022-10-06T21:04:12.150Z,65.81
2022-10-06T21:09:16.784Z,55.83
2022-10-06T21:14:20.107Z,59.92
2022-10-06T21:19:22.916Z,65.96
2022-10-06T21:24:25.711Z,56.16
2022-10-06T21:29:28.483Z,58.55
2022-10-06T21:34:31.881Z,65.34
2022-10-06T21:39:35.038Z,56.37
2022-10-06T21:44:37.748Z,59.22
2022-10-06T21:49:40.499Z,65.55
2022-10-06T21:54:43.256Z,61.56
2022-10-06T21:59:47.062Z,55.63
2022-10-06T22:04:49.833Z,60.77
2022-10-06T22:09:52.584Z,66.93
2022-10-06T22:14:58.849Z,56.19
2022-10-06T22:20:01.616Z,59.49
2022-10-06T22:25:05.282Z,66.14
2022-10-06T22:30:09.096Z,56.66
2022-10-06T22:35:11.985Z,60.11
2022-10-06T22:40:14.813Z,66.62
2022-10-06T22:45:17.693Z,55.81
2022-10-06T22:50:20.441Z,58.90
2022-10-06T22:55:23.823Z,66.07
2022-10-06T23:00:27.863Z,56.66
2022-10-06T23:05:30.949Z,58.36
2022-10-06T23:10:37.127Z,65.00
2022-10-06T23:15:40.032Z,60.64
2022-10-06T23:20:42.839Z,55.79
2022-10-06T23:25:45.739Z,60.99
2022-10-06T23:30:48.537Z,67.32
2022-10-06T23:35:58.485Z,56.15
2022-10-06T23:41:01.304Z,58.17
2022-10-06T23:46:04.244Z,66.09
2022-10-06T23:51:13.040Z,56.96
2022-10-06T23:56:16.264Z,58.46
